Flight Track Log - Related Links

Times and Time Zones

All times are in EST time to prevent confusion due to time zone crossing. See the BOE3 flight status page for this flight to view local times or setup timezone preferences in your user account.


Time Position Orientation Groundspeed Altitude Reporting Facility
EST Latitude Longitude Course Direction KTS MPH feet Rate Location/Type
Tue 02:39:19 PM 47.1706 -119.3614 299° West 195 224 7,300  Level Seattle Center
Tue 02:40:20 PM 47.2031 -119.4483 299° West 250 288 9,800 2,410 Climbing Seattle Center
Tue 02:41:21 PM 47.2378 -119.5406 299° West 257 296 12,200 2,951 Climbing Seattle Center
Tue 02:42:22 PM 47.2800 -119.6542 299° West 321 369 15,800 3,689 Climbing Seattle Center
Tue 02:43:23 PM 47.3264 -119.7767 300° West 340 391 19,700 2,976 Climbing Seattle Center
Tue 02:44:25 PM 47.3786 -119.9119 299° West 375 432 21,900 1,122 Climbing Seattle Center
Tue 02:45:26 PM 47.4322 -120.0531 299° West 391 450 22,000  Climbing Seattle Center
Tue 02:46:27 PM 47.4947 -120.2200 299° West 389 448 21,900 -49 Descending Seattle Center
Tue 02:47:28 PM 47.5464 -120.3589 299° West 388 447 21,900  Level Seattle Center
Tue 02:48:29 PM 47.5981 -120.4983 299° West 386 444 21,900 49 Level Seattle Center
Tue 02:49:30 PM 47.6494 -120.6383 299° West 387 445 22,000 49 Climbing Seattle Center
Tue 02:50:31 PM 47.7011 -120.7781 299° West 388 447 22,000  Level Seattle Center
Tue 02:51:32 PM 47.7472 -120.9025 300° West 387 445 22,000 -639 Level Seattle Center
Tue 02:52:33 PM 47.8097 -121.0664 294° West 385 443 20,700 -2,628 Descending Seattle Center
Tue 02:53:33 PM 47.8547 -121.2158 95° East 378 435 16,700 -3,836 Descending Seattle Center
Tue 02:53:34 PM 47.8542 -121.2067 276° West 385 443 16,800 -3,000 Climbing Seattle Center
Tue 02:54:27 PM 47.8628 -121.3406 281° West 357 411 14,000 -3,049 Descending Seattle Center
Tue 02:54:35 PM 47.8644 -121.3533 275° West 354 407 13,700 -2,164 Descending Seattle Center
Tue 02:55:28 PM 47.8722 -121.4878 316° Northwest 313 360 11,800 -1,869 Descending Seattle Center
Tue 02:55:36 PM 47.8742 -121.4906 274° West 333 383 11,800 -655 Level Seattle Center
Tue 02:56:23 PM 47.8783 -121.5803 279° West 247 284 11,200 -787 Descending Seattle Center
Tue 02:56:37 PM 47.8797 -121.5928 270° West 253 291 11,000 -1,973 Descending Seattle Center
Tue 02:57:36 PM 47.8800 -121.6989 53° Northeast 240 276 8,800 -2,066 Descending Seattle Center
Tue 02:57:38 PM 47.8847 -121.6894 229° Southwest 240 276 8,900 -1,418 Climbing Seattle Center
Tue 02:58:31 PM 47.8378 -121.7692 22° Northeast 241 277 7,500 -1,279 Descending Seattle Center
Tue 02:58:39 PM 47.8419 -121.7667 222° Southwest 245 282 7,600 -600 Climbing Seattle Center
Tue 02:59:31 PM 47.7903 -121.8356 214° Southwest 239 275 6,900 -774 Descending Seattle Center
Tue 02:59:41 PM 47.7825 -121.8433 223° Southwest 238 274 6,800 -1,183 Descending Seattle Center
Tue 03:00:42 PM 47.7372 -121.9061 253° West 227 261 5,500 -1,179 Descending Seattle Center
Tue 03:01:33 PM 47.7225 -121.9797 267° West 235 270 4,600 -1,082 Descending Seattle Center
Tue 03:01:43 PM 47.7219 -121.9964 266° West 240 276 4,400 -1,200 Descending Seattle Center
Tue 03:02:33 PM 47.7181 -122.0844 267° West 238 274 3,400 -1,082 Descending Seattle Center
Tue 03:02:44 PM 47.7175 -122.1014 266° West 237 273 3,300 -393 Descending Seattle Center
Tue 03:03:34 PM 47.7139 -122.1822 257° West 235 270 3,000 -295 Descending Seattle Center
Tue 03:03:45 PM 47.7114 -122.1986 266° West 237 273 3,000  Level Seattle Center
Tue 03:04:35 PM 47.7072 -122.2783 273° West 231 266 3,000 -98 Level Seattle Center
Tue 03:04:46 PM 47.7078 -122.2928 277° West 231 266 2,900 -590 Descending Seattle Center
Tue 03:05:36 PM 47.7133 -122.3639 271° West 204 235 2,400 -689 Descending Seattle Center
Tue 03:05:47 PM 47.7136 -122.3814 218° Southwest 204 235 2,200 -200 Descending Seattle Center
Tue 03:06:36 PM 47.6822 -122.4172 170° South 187 215 2,200  Level Seattle Center
Tue 03:06:48 PM 47.6733 -122.4150 159° South 175 201 2,200  Level Seattle Center
Tue 03:07:37 PM 47.6389 -122.3950 154° Southeast 171 197 2,200 -98 Level Seattle Center
Tue 03:07:49 PM 47.6294 -122.3881 151° Southeast 171 197 2,100 -764 Descending Seattle Center
Tue 03:08:32 PM 47.6000 -122.3639 147° Southeast 172 198 1,500 -885 Descending Seattle Center
Tue 03:08:50 PM 47.5886 -122.3528 149° Southeast 172 198 1,200 -985 Descending Seattle Center
Tue 03:09:39 PM 47.5594 -122.3272 155° Southeast 147 169 400 -885 Descending Seattle Center
Tue 03:09:51 PM 47.5533 -122.3231 155° Southeast 150 173 300 -500 Descending Seattle Center

Login

Don't have an account? Register now (free) for customized features, flight alerts, and more!